createdAt,value
2018-08-18T00:00:17.444Z,99852.53
2018-08-18T00:02:46.173Z,99849.98
2018-08-18T00:05:15.641Z,99855.21
2018-08-18T00:07:44.862Z,99854.78
2018-08-18T00:10:15.890Z,99850.72
2018-08-18T00:12:44.829Z,99851.69
2018-08-18T00:15:13.643Z,99849.39
2018-08-18T00:17:42.421Z,99840.58
2018-08-18T00:20:14.888Z,99847.09
2018-08-18T00:22:43.440Z,99840.95
2018-08-18T00:25:12.375Z,99844.16
2018-08-18T00:27:41.043Z,99844.16
2018-08-18T00:30:15.992Z,99848.66
2018-08-18T00:32:45.080Z,99839.05
2018-08-18T00:35:13.796Z,99845.56
2018-08-18T00:37:42.471Z,99840.22
2018-08-18T00:40:11.977Z,99847.05
2018-08-18T00:42:41.400Z,99848.49
2018-08-18T00:45:11.803Z,99855.74
2018-08-18T00:47:41.013Z,99867.08
2018-08-18T00:50:10.620Z,99864.53
2018-08-18T00:52:39.608Z,99866.99
2018-08-18T00:55:08.514Z,99869.46
2018-08-18T00:57:37.389Z,99864.23
2018-08-18T01:00:06.807Z,99864.64
2018-08-18T01:02:35.733Z,99872.27
2018-08-18T01:05:05.005Z,99876.33
2018-08-18T01:07:33.720Z,99870.04
2018-08-18T01:10:02.967Z,99866.79
2018-08-18T01:12:31.946Z,99867.17
2018-08-18T01:15:00.413Z,99864.70
2018-08-18T01:17:29.286Z,99872.73
2018-08-18T01:19:59.093Z,99869.95
2018-08-18T01:22:27.756Z,99872.75
2018-08-18T01:24:56.466Z,99874.41
2018-08-18T01:27:25.096Z,99876.12
2018-08-18T01:30:01.172Z,99875.37
2018-08-18T01:32:32.997Z,99873.94
2018-08-18T01:35:01.683Z,99869.03
2018-08-18T01:37:32.528Z,99872.83
2018-08-18T01:40:01.503Z,99869.66
2018-08-18T01:42:32.594Z,99871.09
2018-08-18T01:45:01.234Z,99871.29
2018-08-18T01:47:30.778Z,99867.31
2018-08-18T01:50:04.381Z,99878.55
2018-08-18T01:52:33.829Z,99880.63
2018-08-18T01:55:02.533Z,99877.10
2018-08-18T01:57:31.491Z,99881.20
2018-08-18T02:00:05.252Z,99877.17
2018-08-18T02:02:34.261Z,99878.17
2018-08-18T02:05:12.533Z,99876.84
2018-08-18T02:07:41.316Z,99873.02
2018-08-18T02:10:11.083Z,99873.70
2018-08-18T02:12:40.869Z,99878.83
2018-08-18T02:15:09.558Z,99882.45
2018-08-18T02:17:38.890Z,99881.86
2018-08-18T02:20:09.220Z,99877.88
2018-08-18T02:22:37.885Z,99880.50
2018-08-18T02:25:07.061Z,99889.28
2018-08-18T02:27:35.969Z,99891.00
2018-08-18T02:30:23.733Z,99883.44
2018-08-18T02:32:52.397Z,99874.86
2018-08-18T02:35:23.587Z,99877.30
2018-08-18T02:37:52.352Z,99878.91
2018-08-18T02:40:21.080Z,99885.77
2018-08-18T02:42:49.820Z,99889.44
2018-08-18T02:45:18.586Z,99908.38
2018-08-18T02:47:47.413Z,99934.14
2018-08-18T02:50:16.028Z,99948.50
2018-08-18T02:52:45.438Z,99944.12
2018-08-18T02:55:14.093Z,99961.92
2018-08-18T02:57:44.760Z,99968.20
2018-08-18T03:00:23.683Z,99964.41
2018-08-18T03:02:52.494Z,99972.11
2018-08-18T03:05:21.404Z,99968.39
2018-08-18T03:07:51.627Z,99969.94
2018-08-18T03:10:27.129Z,99964.42
2018-08-18T03:12:59.325Z,99969.94
2018-08-18T03:16:05.665Z,99971.27
2018-08-18T03:18:42.261Z,99970.03
2018-08-18T03:21:11.141Z,99969.94
2018-08-18T03:23:50.013Z,99965.95
2018-08-18T03:26:21.343Z,99968.39
2018-08-18T03:28:51.100Z,99966.70
2018-08-18T03:31:20.116Z,99971.26
2018-08-18T03:33:51.329Z,99976.23
2018-08-18T03:36:35.533Z,99969.87
2018-08-18T03:39:05.946Z,99979.40
2018-08-18T03:41:34.609Z,99981.97
2018-08-18T03:44:03.564Z,99985.50
2018-08-18T03:46:32.258Z,99993.77
2018-08-18T03:49:00.932Z,99986.10
2018-08-18T03:51:34.736Z,99990.48
2018-08-18T03:54:03.580Z,99993.59
2018-08-18T03:56:32.257Z,99991.80
2018-08-18T03:59:01.706Z,99994.84
2018-08-18T04:01:40.508Z,99992.55
2018-08-18T04:04:10.411Z,99996.83
2018-08-18T04:06:41.092Z,99995.02
2018-08-18T04:09:13.363Z,99998.27
2018-08-18T04:11:41.980Z,99991.80
2018-08-18T04:14:10.838Z,99996.29
2018-08-18T04:16:45.301Z,99997.89
2018-08-18T04:19:14.701Z,100007.63
2018-08-18T04:21:43.417Z,100008.38
2018-08-18T04:24:11.977Z,100010.67
2018-08-18T04:26:40.865Z,100015.43
2018-08-18T04:29:09.585Z,100008.38
2018-08-18T04:31:38.760Z,100010.08
2018-08-18T04:34:08.625Z,100018.48
2018-08-18T04:36:37.287Z,100021.62
2018-08-18T04:39:08.408Z,100017.52
2018-08-18T04:41:37.287Z,100025.32
2018-08-18T04:44:06.435Z,100026.79
2018-08-18T04:46:35.332Z,100021.23
2018-08-18T04:49:04.529Z,100032.09
2018-08-18T04:51:33.259Z,100033.86
2018-08-18T04:54:02.115Z,100028.52
2018-08-18T04:56:31.055Z,100030.57
2018-08-18T04:58:59.713Z,100033.42
2018-08-18T05:01:29.538Z,100037.69
2018-08-18T05:04:09.008Z,100041.98
2018-08-18T05:06:40.789Z,100034.84
2018-08-18T05:09:12.189Z,100044.33
2018-08-18T05:11:40.959Z,100047.16
2018-08-18T05:14:09.682Z,100039.39
2018-08-18T05:16:38.325Z,100059.51
2018-08-18T05:19:07.075Z,100058.91
2018-08-18T05:21:35.784Z,100057.70
2018-08-18T05:24:20.383Z,100064.05
2018-08-18T05:26:49.540Z,100060.08
2018-08-18T05:29:18.278Z,100056.58
2018-08-18T05:31:48.102Z,100062.23
2018-08-18T05:34:17.196Z,100065.80
2018-08-18T05:36:46.281Z,100072.75
2018-08-18T05:39:15.206Z,100081.30
2018-08-18T05:41:43.888Z,100077.28
2018-08-18T05:44:12.707Z,100067.09
2018-08-18T05:46:41.428Z,100075.75
2018-08-18T05:49:14.361Z,100075.66
2018-08-18T05:51:45.225Z,100071.89
2018-08-18T05:54:15.317Z,100078.26
2018-08-18T05:56:45.353Z,100074.48
2018-08-18T05:59:13.948Z,100077.08
2018-08-18T06:01:43.068Z,100076.98
2018-08-18T06:04:16.037Z,100071.98
2018-08-18T06:06:45.607Z,100084.81
2018-08-18T06:09:15.448Z,100084.92
2018-08-18T06:11:44.379Z,100078.08
2018-08-18T06:14:13.833Z,100079.55
2018-08-18T06:16:43.853Z,100088.92
2018-08-18T06:19:12.491Z,100087.48
2018-08-18T06:21:41.347Z,100094.17
2018-08-18T06:24:10.084Z,100086.85
2018-08-18T06:26:39.060Z,100083.52
2018-08-18T06:29:07.742Z,100092.55
2018-08-18T06:31:50.318Z,100099.02
2018-08-18T06:34:19.008Z,100105.80
2018-08-18T06:36:47.712Z,100095.87
2018-08-18T06:39:16.393Z,100105.80
2018-08-18T06:41:45.201Z,100104.28
2018-08-18T06:44:14.554Z,100099.25
2018-08-18T06:46:43.345Z,100104.16
2018-08-18T06:49:12.119Z,100093.69
2018-08-18T06:51:40.814Z,100091.27
2018-08-18T06:54:09.705Z,100096.41
2018-08-18T06:56:38.272Z,100101.53
2018-08-18T06:59:09.610Z,100106.78
2018-08-18T07:01:38.699Z,100106.17
2018-08-18T07:04:13.461Z,100112.14
2018-08-18T07:06:42.637Z,100117.63
2018-08-18T07:09:11.428Z,100120.45
2018-08-18T07:11:43.374Z,100121.80
2018-08-18T07:14:12.210Z,100135.79
2018-08-18T07:16:41.551Z,100126.84
2018-08-18T07:19:10.300Z,100132.22
2018-08-18T07:21:38.972Z,100133.83
2018-08-18T07:24:07.585Z,100134.91
2018-08-18T07:26:36.290Z,100134.38
2018-08-18T07:29:05.183Z,100139.92
2018-08-18T07:31:34.645Z,100154.36
2018-08-18T07:34:09.820Z,100147.18
2018-08-18T07:36:38.471Z,100158.95
2018-08-18T07:39:08.330Z,100154.66
2018-08-18T07:41:36.981Z,100157.92
2018-08-18T07:44:05.665Z,100153.68
2018-08-18T07:46:34.570Z,100159.36
2018-08-18T07:49:04.381Z,100158.17
2018-08-18T07:51:33.086Z,100163.07
2018-08-18T07:54:01.689Z,100151.56
2018-08-18T07:56:30.466Z,100159.66
2018-08-18T07:58:59.460Z,100153.52
2018-08-18T08:01:28.172Z,100147.50
2018-08-18T08:03:57.927Z,100156.20
2018-08-18T08:06:26.630Z,100159.61
2018-08-18T08:08:55.388Z,100162.23
2018-08-18T08:11:25.526Z,100164.95
2018-08-18T08:13:54.293Z,100160.55
2018-08-18T08:16:23.219Z,100155.31
2018-08-18T08:18:52.603Z,100163.17
2018-08-18T08:21:21.421Z,100161.97
2018-08-18T08:23:51.200Z,100163.88
2018-08-18T08:26:19.814Z,100156.14
2018-08-18T08:28:48.726Z,100160.22
2018-08-18T08:31:18.455Z,100160.48
2018-08-18T08:33:47.145Z,100157.28
2018-08-18T08:36:17.310Z,100171.30
2018-08-18T08:38:54.199Z,100171.91
2018-08-18T08:41:24.852Z,100168.83
2018-08-18T08:43:53.781Z,100163.54
2018-08-18T08:46:22.677Z,100161.45
2018-08-18T08:48:56.769Z,100165.98
2018-08-18T08:51:26.157Z,100168.00
2018-08-18T08:53:56.139Z,100173.64
2018-08-18T08:56:29.739Z,100170.90
2018-08-18T08:58:58.647Z,100158.63
2018-08-18T09:01:27.389Z,100165.98
2018-08-18T09:03:56.022Z,100167.19
2018-08-18T09:06:24.808Z,100164.17
2018-08-18T09:08:58.425Z,100170.48
2018-08-18T09:11:28.492Z,100173.45
2018-08-18T09:14:04.898Z,100159.53
2018-08-18T09:16:34.819Z,100167.42
2018-08-18T09:19:03.534Z,100165.83
2018-08-18T09:21:40.314Z,100164.93
2018-08-18T09:24:09.948Z,100168.41
2018-08-18T09:26:43.786Z,100169.75
2018-08-18T09:29:14.243Z,100170.04
2018-08-18T09:31:43.818Z,100168.14
2018-08-18T09:34:12.641Z,100167.88
2018-08-18T09:36:41.958Z,100160.58
2018-08-18T09:39:17.290Z,100159.91
2018-08-18T09:41:46.365Z,100156.16
2018-08-18T09:44:20.192Z,100157.86
2018-08-18T09:46:48.788Z,100157.79
2018-08-18T09:49:17.409Z,100157.98
2018-08-18T09:51:46.238Z,100159.11
2018-08-18T09:54:15.132Z,100156.16
2018-08-18T09:56:43.858Z,100155.39
2018-08-18T09:59:12.950Z,100159.99
2018-08-18T10:01:41.847Z,100159.41
2018-08-18T10:04:10.557Z,100166.36
2018-08-18T10:06:39.486Z,100163.66
2018-08-18T10:09:09.459Z,100160.44
2018-08-18T10:11:38.745Z,100162.42
2018-08-18T10:14:07.966Z,100161.89
2018-08-18T10:16:37.025Z,100164.16
2018-08-18T10:19:05.980Z,100164.85
2018-08-18T10:21:34.797Z,100166.23
2018-08-18T10:24:03.853Z,100166.99
2018-08-18T10:26:32.524Z,100174.84
2018-08-18T10:29:13.485Z,100177.48
2018-08-18T10:31:52.415Z,100183.81
2018-08-18T10:34:23.277Z,100181.14
2018-08-18T10:36:56.310Z,100184.67
2018-08-18T10:39:25.078Z,100195.66
2018-08-18T10:42:20.245Z,100191.91
2018-08-18T10:44:58.250Z,100204.25
2018-08-18T10:47:26.910Z,100199.06
2018-08-18T10:50:06.890Z,100202.94
2018-08-18T10:52:46.724Z,100198.37
2018-08-18T10:55:16.729Z,100197.20
2018-08-18T10:57:59.432Z,100202.66
2018-08-18T11:00:29.673Z,100199.38
2018-08-18T11:03:00.901Z,100194.69
2018-08-18T11:05:30.331Z,100194.59
2018-08-18T11:08:04.439Z,100189.39
2018-08-18T11:10:34.868Z,100184.73
2018-08-18T11:13:03.676Z,100183.72
2018-08-18T11:15:32.341Z,100184.96
2018-08-18T11:18:01.353Z,100198.97
2018-08-18T11:20:31.456Z,100193.52
2018-08-18T11:23:06.899Z,100198.88
2018-08-18T11:25:38.721Z,100204.93
2018-08-18T11:28:08.576Z,100207.53
2018-08-18T11:30:38.419Z,100211.84
2018-08-18T11:33:07.473Z,100208.97
2018-08-18T11:35:36.497Z,100208.74
2018-08-18T11:38:08.711Z,100213.50
2018-08-18T11:40:37.453Z,100217.95
2018-08-18T11:43:09.097Z,100218.44
2018-08-18T11:45:39.796Z,100217.78
2018-08-18T11:48:20.462Z,100210.31
2018-08-18T11:50:50.173Z,100215.22
2018-08-18T11:53:18.953Z,100209.52
2018-08-18T11:55:47.807Z,100211.16
2018-08-18T11:58:17.848Z,100206.38
2018-08-18T12:00:50.080Z,100203.98
2018-08-18T12:03:21.761Z,100206.03
2018-08-18T12:05:54.344Z,100200.22
2018-08-18T12:08:25.457Z,100205.72
2018-08-18T12:10:56.745Z,100212.09
2018-08-18T12:13:31.200Z,100203.72
2018-08-18T12:16:12.380Z,100199.96
2018-08-18T12:18:42.410Z,100197.97
2018-08-18T12:21:11.783Z,100210.42
2018-08-18T12:23:41.957Z,100214.73
2018-08-18T12:26:13.734Z,100212.31
2018-08-18T12:28:45.241Z,100207.25
2018-08-18T12:31:16.712Z,100213.01
2018-08-18T12:33:45.535Z,100209.24
2018-08-18T12:36:14.357Z,100213.30
2018-08-18T12:38:44.537Z,100208.10
2018-08-18T12:41:13.687Z,100208.80
2018-08-18T12:43:45.252Z,100207.06
2018-08-18T12:46:16.260Z,100199.11
2018-08-18T12:48:46.231Z,100198.70
2018-08-18T12:51:16.098Z,100191.19
2018-08-18T12:53:53.189Z,100193.85
2018-08-18T12:56:27.847Z,100190.28
2018-08-18T12:58:56.732Z,100168.86
2018-08-18T13:01:40.844Z,100175.70
2018-08-18T13:04:11.778Z,100170.28
2018-08-18T13:06:55.032Z,100163.81
2018-08-18T13:09:26.694Z,100172.77
2018-08-18T13:11:56.792Z,100155.09
2018-08-18T13:14:27.178Z,100154.06
2018-08-18T13:16:55.959Z,100156.18
2018-08-18T13:19:27.576Z,100154.35
2018-08-18T13:21:56.287Z,100157.06
2018-08-18T13:24:25.070Z,100136.92
2018-08-18T13:26:53.852Z,100143.41
2018-08-18T13:29:22.533Z,100134.56
2018-08-18T13:31:51.142Z,100138.50
2018-08-18T13:34:19.874Z,100132.83
2018-08-18T13:36:48.682Z,100132.47
2018-08-18T13:39:18.865Z,100125.45
2018-08-18T13:41:48.680Z,100127.80
2018-08-18T13:44:26.406Z,100124.58
2018-08-18T13:46:55.164Z,100118.91
2018-08-18T13:49:25.345Z,100117.45
2018-08-18T13:51:54.115Z,100115.81
2018-08-18T13:54:22.857Z,100110.73
2018-08-18T13:56:51.574Z,100110.40
2018-08-18T13:59:45.304Z,100113.94
2018-08-18T14:02:13.969Z,100109.41
2018-08-18T14:04:43.496Z,100108.75
2018-08-18T14:07:12.917Z,100111.87
2018-08-18T14:09:44.213Z,100112.59
2018-08-18T14:12:17.253Z,100116.31
2018-08-18T14:14:46.766Z,100118.45
2018-08-18T14:17:16.465Z,100121.43
2018-08-18T14:19:45.150Z,100114.85
2018-08-18T14:22:14.610Z,100116.13
2018-08-18T14:24:43.345Z,100111.03
2018-08-18T14:27:15.997Z,100108.86
2018-08-18T14:29:44.743Z,100102.67
2018-08-18T14:32:18.270Z,100112.92
2018-08-18T14:34:56.839Z,100118.85
2018-08-18T14:37:25.508Z,100113.20
2018-08-18T14:39:54.215Z,100111.05
2018-08-18T14:42:22.908Z,100109.55
2018-08-18T14:44:52.046Z,100116.09
2018-08-18T14:47:20.629Z,100111.30
2018-08-18T14:49:49.848Z,100112.19
2018-08-18T14:52:18.514Z,100112.13
2018-08-18T14:54:47.216Z,100108.08
2018-08-18T14:57:15.973Z,100105.49
2018-08-18T14:59:44.765Z,100105.49
2018-08-18T15:02:14.082Z,100099.40
2018-08-18T15:04:42.681Z,100109.25
2018-08-18T15:07:11.357Z,100108.70
2018-08-18T15:09:44.423Z,100103.42
2018-08-18T15:12:13.246Z,100103.22
2018-08-18T15:14:41.976Z,100111.27
2018-08-18T15:17:10.836Z,100106.45
2018-08-18T15:19:39.529Z,100099.48
2018-08-18T15:22:09.884Z,100097.77
2018-08-18T15:24:38.879Z,100093.76
2018-08-18T15:27:07.643Z,100090.95
2018-08-18T15:29:36.565Z,100092.70
2018-08-18T15:32:06.277Z,100084.69
2018-08-18T15:34:35.023Z,100090.25
2018-08-18T15:37:03.941Z,100079.23
2018-08-18T15:39:33.604Z,100084.28
2018-08-18T15:42:02.428Z,100081.64
2018-08-18T15:44:31.323Z,100082.30
2018-08-18T15:47:00.261Z,100084.45
2018-08-18T15:49:29.731Z,100084.84
2018-08-18T15:51:58.732Z,100090.06
2018-08-18T15:54:27.408Z,100081.63
2018-08-18T15:56:57.005Z,100077.97
2018-08-18T15:59:25.890Z,100082.91
2018-08-18T16:01:54.601Z,100082.55
2018-08-18T16:04:23.429Z,100076.81
2018-08-18T16:06:52.134Z,100078.97
2018-08-18T16:09:20.847Z,100084.33
2018-08-18T16:11:49.635Z,100075.59
2018-08-18T16:14:18.564Z,100076.34
2018-08-18T16:16:57.489Z,100081.97
2018-08-18T16:19:26.376Z,100086.48
2018-08-18T16:21:55.121Z,100085.63
2018-08-18T16:24:31.070Z,100090.49
2018-08-18T16:27:00.845Z,100095.05
2018-08-18T16:29:30.629Z,100087.70
2018-08-18T16:32:16.753Z,100083.16
2018-08-18T16:34:46.764Z,100092.10
2018-08-18T16:37:15.894Z,100093.86
2018-08-18T16:39:45.031Z,100095.69
2018-08-18T16:42:14.724Z,100100.24
2018-08-18T16:44:43.493Z,100102.05
2018-08-18T16:47:12.290Z,100106.80
2018-08-18T16:49:40.867Z,100110.42
2018-08-18T16:52:09.572Z,100111.42
2018-08-18T16:54:38.338Z,100115.47
2018-08-18T16:57:06.977Z,100115.42
2018-08-18T16:59:37.516Z,100114.38
2018-08-18T17:02:09.388Z,100116.33
2018-08-18T17:04:38.156Z,100121.58
2018-08-18T17:07:13.614Z,100123.41
2018-08-18T17:09:43.383Z,100126.41
2018-08-18T17:12:23.200Z,100127.31
2018-08-18T17:14:51.862Z,100126.78
2018-08-18T17:17:22.778Z,100133.98
2018-08-18T17:19:51.557Z,100137.87
2018-08-18T17:22:20.169Z,100140.38
2018-08-18T17:24:49.074Z,100136.28
2018-08-18T17:27:17.722Z,100144.32
2018-08-18T17:29:48.926Z,100146.50
2018-08-18T17:32:17.699Z,100152.94
2018-08-18T17:34:46.305Z,100156.60
2018-08-18T17:37:16.113Z,100160.90
2018-08-18T17:39:44.749Z,100157.69
2018-08-18T17:42:13.586Z,100157.24
2018-08-18T17:44:42.289Z,100158.64
2018-08-18T17:47:11.772Z,100158.09
2018-08-18T17:49:46.969Z,100164.60
2018-08-18T17:52:15.684Z,100168.77
2018-08-18T17:54:53.876Z,100172.34
2018-08-18T17:57:22.535Z,100174.88
2018-08-18T17:59:51.521Z,100177.90
2018-08-18T18:02:20.255Z,100177.20
2018-08-18T18:04:53.364Z,100175.41
2018-08-18T18:07:22.627Z,100173.31
2018-08-18T18:09:51.574Z,100183.42
2018-08-18T18:12:25.530Z,100179.05
2018-08-18T18:14:55.696Z,100190.03
2018-08-18T18:17:25.007Z,100198.41
2018-08-18T18:19:56.348Z,100198.68
2018-08-18T18:22:26.011Z,100197.75
2018-08-18T18:24:55.346Z,100201.70
2018-08-18T18:27:24.681Z,100201.57
2018-08-18T18:29:54.370Z,100205.88
2018-08-18T18:32:24.499Z,100204.59
2018-08-18T18:34:53.452Z,100209.94
2018-08-18T18:37:22.584Z,100209.78
2018-08-18T18:40:01.523Z,100212.68
2018-08-18T18:42:30.330Z,100211.87
2018-08-18T18:44:59.641Z,100213.46
2018-08-18T18:47:29.124Z,100213.18
2018-08-18T18:49:57.824Z,100216.95
2018-08-18T18:52:26.534Z,100216.09
2018-08-18T18:54:57.965Z,100213.91
2018-08-18T18:57:28.029Z,100215.06
2018-08-18T19:00:00.591Z,100213.94
2018-08-18T19:02:37.591Z,100216.25
2018-08-18T19:05:16.937Z,100219.09
2018-08-18T19:07:47.510Z,100210.42
2018-08-18T19:10:17.318Z,100218.45
2018-08-18T19:12:48.041Z,100218.14
2018-08-18T19:15:16.678Z,100217.28
2018-08-18T19:17:45.300Z,100210.28
2018-08-18T19:20:20.879Z,100215.25
2018-08-18T19:22:50.798Z,100218.02
2018-08-18T19:25:19.437Z,100210.37
2018-08-18T19:27:48.121Z,100202.34
2018-08-18T19:30:16.800Z,100210.47
2018-08-18T19:32:45.779Z,100213.23
2018-08-18T19:35:14.401Z,100213.94
2018-08-18T19:37:48.559Z,100213.36
2018-08-18T19:40:17.269Z,100216.45
2018-08-18T19:42:45.913Z,100224.45
2018-08-18T19:45:14.669Z,100224.84
2018-08-18T19:47:44.051Z,100227.80
2018-08-18T19:50:12.885Z,100232.06
2018-08-18T19:52:41.989Z,100228.55
2018-08-18T19:55:12.473Z,100221.63
2018-08-18T19:57:41.735Z,100224.84
2018-08-18T20:00:18.029Z,100227.64
2018-08-18T20:03:17.073Z,100229.45
2018-08-18T20:05:45.967Z,100226.91
2018-08-18T20:08:21.337Z,100237.36
2018-08-18T20:10:58.805Z,100231.56
2018-08-18T20:13:28.991Z,100229.13
2018-08-18T20:15:59.225Z,100236.53
2018-08-18T20:18:28.008Z,100231.04
2018-08-18T20:20:58.733Z,100229.08
2018-08-18T20:23:27.493Z,100233.34
2018-08-18T20:25:56.200Z,100238.86
2018-08-18T20:28:25.530Z,100245.71
2018-08-18T20:30:54.216Z,100243.94
2018-08-18T20:33:22.797Z,100245.41
2018-08-18T20:35:51.585Z,100249.56
2018-08-18T20:38:20.268Z,100242.11
2018-08-18T20:40:49.401Z,100239.42
2018-08-18T20:43:18.064Z,100238.58
2018-08-18T20:45:48.961Z,100245.19
2018-08-18T20:48:19.599Z,100250.13
2018-08-18T20:50:48.854Z,100245.99
2018-08-18T20:53:18.104Z,100251.79
2018-08-18T20:55:53.596Z,100246.57
2018-08-18T20:58:22.498Z,100249.64
2018-08-18T21:00:51.281Z,100247.59
2018-08-18T21:03:20.037Z,100252.95
2018-08-18T21:05:48.706Z,100258.92
2018-08-18T21:08:20.324Z,100253.67
2018-08-18T21:10:49.585Z,100261.25
2018-08-18T21:13:18.287Z,100261.12
2018-08-18T21:15:46.998Z,100261.70
2018-08-18T21:18:19.809Z,100257.67
2018-08-18T21:20:49.305Z,100267.65
2018-08-18T21:23:18.833Z,100270.95
2018-08-18T21:25:49.600Z,100271.23
2018-08-18T21:28:19.309Z,100270.98
2018-08-18T21:30:48.474Z,100273.78
2018-08-18T21:33:17.134Z,100273.78
2018-08-18T21:35:47.012Z,100277.92
2018-08-18T21:38:15.625Z,100280.81
2018-08-18T21:40:44.468Z,100281.80
2018-08-18T21:43:24.289Z,100283.58
2018-08-18T21:45:53.906Z,100282.58
2018-08-18T21:48:32.414Z,100286.36
2018-08-18T21:51:01.273Z,100278.39
2018-08-18T21:53:30.024Z,100276.67
2018-08-18T21:56:00.130Z,100280.22
2018-08-18T21:58:28.865Z,100284.58
2018-08-18T22:01:29.472Z,100283.02
2018-08-18T22:03:58.310Z,100282.30
2018-08-18T22:06:27.021Z,100288.14
2018-08-18T22:09:09.762Z,100283.59
2018-08-18T22:11:38.417Z,100282.95
2018-08-18T22:14:07.721Z,100286.11
2018-08-18T22:16:37.786Z,100278.02
2018-08-18T22:19:06.500Z,100278.08
2018-08-18T22:21:35.205Z,100282.26
2018-08-18T22:24:03.933Z,100281.38
2018-08-18T22:26:32.540Z,100279.52
2018-08-18T22:29:05.145Z,100285.45
2018-08-18T22:31:34.421Z,100295.64
2018-08-18T22:34:04.298Z,100290.66
2018-08-18T22:36:35.242Z,100287.10
2018-08-18T22:39:05.182Z,100289.03
2018-08-18T22:41:34.298Z,100285.66
2018-08-18T22:44:02.981Z,100287.52
2018-08-18T22:46:31.899Z,100288.22
2018-08-18T22:49:01.613Z,100287.73
2018-08-18T22:51:30.301Z,100289.02
2018-08-18T22:53:58.957Z,100290.36
2018-08-18T22:56:32.813Z,100288.12
2018-08-18T22:59:02.475Z,100287.74
2018-08-18T23:01:31.879Z,100285.81
2018-08-18T23:04:00.914Z,100303.25
2018-08-18T23:06:32.844Z,100294.91
2018-08-18T23:09:01.520Z,100301.91
2018-08-18T23:11:30.149Z,100298.76
2018-08-18T23:13:58.709Z,100299.72
2018-08-18T23:16:27.965Z,100303.36
2018-08-18T23:18:56.756Z,100301.27
2018-08-18T23:21:31.341Z,100299.52
2018-08-18T23:24:02.769Z,100306.80
2018-08-18T23:26:32.430Z,100305.30
2018-08-18T23:29:01.387Z,100300.80
2018-08-18T23:31:30.067Z,100301.38
2018-08-18T23:33:58.680Z,100296.86
2018-08-18T23:36:27.258Z,100297.06
2018-08-18T23:38:58.886Z,100299.09
2018-08-18T23:41:27.657Z,100301.48
2018-08-18T23:43:56.269Z,100287.32
2018-08-18T23:46:24.966Z,100293.19
2018-08-18T23:48:53.665Z,100292.60
2018-08-18T23:51:27.288Z,100287.25
2018-08-18T23:53:55.858Z,100286.15
2018-08-18T23:56:28.680Z,100284.64
2018-08-18T23:58:58.821Z,100280.84
